Estación Meteorológica Peña el Pijo (Robertgarden) [ 11/12/18 20:33:59 CET ]

Fecha Hora Presion(HPa) Temp (°C) Humedad % Rocio (°C) Viento ( m/s) Direccion Lluvia 1Hora(mm) Lluvia 24H(mm) LLuvia Total(mm)
2018-Mar-02 01:01:27 991.500 4.7 83 2.0       4.66 92.20
2018-Mar-02 02:01:41 991.900 4.8 83 2.1       4.66 92.20
2018-Mar-02 03:04:12 992.400 4.5 83 1.8       4.66 92.20
2018-Mar-02 04:01:44 991.700 4.7 81 1.7       4.66 92.20
2018-Mar-02 05:01:56 992.300 4.6 81 1.6       4.66 92.20
2018-Mar-02 06:01:46 992.200 4.3 82 1.5       4.66 92.20
2018-Mar-02 07:01:54 992.900 4.1 83 1.5       4.66 92.20
2018-Mar-02 08:01:53 992.400 3.9 84 1.4     1.03 5.69 93.24
2018-Mar-02 09:01:33 992.000 4.4 85 2.1       5.69 93.24
2018-Mar-02 10:01:54 991.000 6.4 86 4.2     0.51 6.21 93.75
2018-Mar-02 11:01:44 991.500 9.5 81 6.4       6.21 93.75
2018-Mar-02 12:01:54 991.700 8.4 82 5.5     0.51 6.21 94.27
2018-Mar-02 13:01:48 992.200 7.3 81 4.3     1.03 7.25 95.31
2018-Mar-02 14:01:47 990.600 11.1 79 7.6     1.03 7.77 96.34
2018-Mar-02 15:01:53 990.300 10.1 78 6.4       7.77 96.34
2018-Mar-02 16:01:32 990.400 8.5 81 5.4     3.10 9.32 99.45
2018-Mar-02 17:01:38 989.600 8.4 82 5.5     0.51 9.84 99.97
2018-Mar-02 18:01:35 990.200 8.5 83 5.8     1.55 11.39 101.52
2018-Mar-02 19:01:48 990.100 8.3 84 5.8     1.03 12.43 102.56
2018-Mar-02 20:01:40 990.300 8.9 84 6.3 0.9 NNW 1.03 12.43 103.60
2018-Mar-02 21:01:46 991.000 8.1 80 4.9 0.3 NW   11.39 103.60
2018-Mar-02 22:01:48 990.900 8.4 80 5.2       11.39 103.60
2018-Mar-02 23:01:38 991.100 8.8 77 4.9       11.39 103.60

Temperatura Máxima:11°    Temperatura Mínima:
Presión Máxima:992.900 Hpa    Presión Mínima:989.600 Hpa


Volver